Terminal Aerodrome Forecast
Issued by NWS Louisville, KY

Home | Current Version | Previous Version | Text Only | Print | Product List | Glossary On
Versions: 1 2 3 4 5 6 7 8 9 10 11 12 13 14
000
FTUS43 KLMK 230821 AAA
TAFLEX
TAF AMD
KLEX 230821Z 2308/2406 18007KT P6SM BKN040
     FM231100 20008KT 6SM BR BKN015
      TEMPO 2312/2316 4SM BR BKN008
     FM231900 19007KT P6SM BKN035=

USA.gov is the U.S. government's official web portal to all federal, state and local government web resources and services.